createdAt,value
2023-05-21T00:00:11.951Z,74.67
2023-05-21T00:02:59.074Z,75.18
2023-05-21T00:05:45.083Z,74.67
2023-05-21T00:08:30.582Z,74.22
2023-05-21T00:11:15.770Z,73.42
2023-05-21T00:14:00.926Z,74.75
2023-05-21T00:16:46.977Z,75.09
2023-05-21T00:19:34.163Z,75.12
2023-05-21T00:22:20.083Z,75.36
2023-05-21T00:25:05.835Z,75.04
2023-05-21T00:27:50.833Z,75.18
2023-05-21T00:30:36.078Z,73.68
2023-05-21T00:33:21.703Z,75.11
2023-05-21T00:36:07.956Z,73.22
2023-05-21T00:38:53.798Z,73.03
2023-05-21T00:41:40.443Z,73.59
2023-05-21T00:44:26.950Z,70.11
2023-05-21T00:47:13.799Z,70.34
2023-05-21T00:49:59.238Z,74.59
2023-05-21T00:52:46.154Z,75.00
2023-05-21T00:55:31.145Z,74.12
2023-05-21T00:58:17.791Z,75.31
2023-05-21T01:01:03.799Z,74.22
2023-05-21T01:03:49.192Z,75.99
2023-05-21T01:06:35.057Z,76.35
2023-05-21T01:09:20.345Z,74.97
2023-05-21T01:12:06.448Z,74.42
2023-05-21T01:14:51.946Z,74.46
2023-05-21T01:17:37.098Z,72.41
2023-05-21T01:20:24.147Z,74.65
2023-05-21T01:23:08.793Z,74.71
2023-05-21T01:25:54.055Z,76.12
2023-05-21T01:28:39.368Z,76.20
2023-05-21T01:31:30.438Z,75.59
2023-05-21T01:34:19.397Z,76.26
2023-05-21T01:37:27.051Z,75.79
2023-05-21T01:40:25.954Z,75.05
2023-05-21T01:43:11.607Z,74.36
2023-05-21T01:45:57.392Z,75.34
2023-05-21T01:48:43.757Z,75.75
2023-05-21T01:51:28.987Z,73.44
2023-05-21T01:54:14.415Z,72.51
2023-05-21T01:56:59.992Z,72.67
2023-05-21T01:59:45.524Z,73.52
2023-05-21T02:02:30.572Z,73.41
2023-05-21T02:05:16.221Z,75.42
2023-05-21T02:08:01.363Z,76.77
2023-05-21T02:10:46.169Z,75.21
2023-05-21T02:13:32.619Z,75.77
2023-05-21T02:16:18.099Z,76.29
2023-05-21T02:19:05.038Z,75.90
2023-05-21T02:21:50.243Z,77.00
2023-05-21T02:24:34.968Z,74.67
2023-05-21T02:27:19.926Z,76.29
2023-05-21T02:30:07.104Z,74.95
2023-05-21T02:32:52.189Z,74.95
2023-05-21T02:35:37.302Z,74.94
2023-05-21T02:38:23.069Z,74.16
2023-05-21T02:41:08.598Z,76.01
2023-05-21T02:43:53.714Z,75.56
2023-05-21T02:46:38.644Z,74.57
2023-05-21T02:49:23.856Z,74.56
2023-05-21T02:52:08.779Z,73.94
2023-05-21T02:54:53.906Z,75.92
2023-05-21T02:57:38.749Z,74.87
2023-05-21T03:00:23.561Z,73.98
2023-05-21T03:03:09.228Z,76.66
2023-05-21T03:05:54.851Z,73.88
2023-05-21T03:08:39.912Z,75.20
2023-05-21T03:11:24.755Z,75.27
2023-05-21T03:14:09.930Z,74.97
2023-05-21T03:16:54.962Z,73.60
2023-05-21T03:19:42.040Z,73.98
2023-05-21T03:22:27.060Z,73.93
2023-05-21T03:25:13.657Z,75.32
2023-05-21T03:27:59.026Z,74.02
2023-05-21T03:30:49.472Z,71.26
2023-05-21T03:33:34.431Z,75.90
2023-05-21T03:36:20.056Z,71.94
2023-05-21T03:39:05.693Z,71.70
2023-05-21T03:41:51.063Z,71.29
2023-05-21T03:44:36.628Z,74.68
2023-05-21T03:47:21.520Z,71.81
2023-05-21T03:50:08.524Z,72.31
2023-05-21T03:52:53.724Z,75.47
2023-05-21T03:55:39.253Z,74.32
2023-05-21T03:58:24.649Z,74.70
2023-05-21T04:01:10.617Z,74.48
2023-05-21T04:03:55.958Z,75.97
2023-05-21T04:06:42.807Z,74.16
2023-05-21T04:09:27.983Z,75.83
2023-05-21T04:12:13.051Z,76.40
2023-05-21T04:14:58.136Z,77.80
2023-05-21T04:17:43.401Z,78.02
2023-05-21T04:20:28.049Z,78.09
2023-05-21T04:23:12.885Z,77.02
2023-05-21T04:25:57.802Z,74.89
2023-05-21T04:28:42.992Z,77.77
2023-05-21T04:31:28.033Z,79.02
2023-05-21T04:34:13.567Z,77.90
2023-05-21T04:36:58.635Z,78.99
2023-05-21T04:39:44.709Z,76.26
2023-05-21T04:42:30.338Z,78.97
2023-05-21T04:45:15.567Z,75.50
2023-05-21T04:48:00.461Z,77.96
2023-05-21T04:50:46.863Z,77.70
2023-05-21T04:53:31.538Z,77.07
2023-05-21T04:56:20.245Z,76.64
2023-05-21T04:59:06.628Z,76.04
2023-05-21T05:01:51.691Z,76.75
2023-05-21T05:04:38.144Z,76.93
2023-05-21T05:07:23.676Z,77.34
2023-05-21T05:10:09.270Z,77.07
2023-05-21T05:12:54.768Z,76.64
2023-05-21T05:15:39.696Z,76.21
2023-05-21T05:18:24.559Z,76.93
2023-05-21T05:21:09.637Z,76.58
2023-05-21T05:23:54.757Z,76.32
2023-05-21T05:26:40.116Z,74.20
2023-05-21T05:29:24.892Z,76.69
2023-05-21T05:32:10.206Z,76.03
2023-05-21T05:34:55.413Z,75.21
2023-05-21T05:37:40.937Z,75.32
2023-05-21T05:40:25.992Z,75.15
2023-05-21T05:43:11.147Z,74.67
2023-05-21T05:45:57.029Z,75.12
2023-05-21T05:48:41.755Z,75.81
2023-05-21T05:51:27.008Z,75.33
2023-05-21T05:54:11.881Z,75.05
2023-05-21T05:56:56.674Z,75.05
2023-05-21T05:59:41.837Z,75.05
2023-05-21T06:02:27.058Z,75.11
2023-05-21T06:05:12.080Z,75.57
2023-05-21T06:07:56.861Z,74.81
2023-05-21T06:10:42.152Z,74.96
2023-05-21T06:13:27.071Z,74.55
2023-05-21T06:16:13.000Z,74.77
2023-05-21T06:18:58.053Z,74.85
2023-05-21T06:21:43.393Z,74.14
2023-05-21T06:24:28.637Z,73.89
2023-05-21T06:27:13.636Z,74.14
2023-05-21T06:29:58.572Z,73.28
2023-05-21T06:32:44.159Z,72.78
2023-05-21T06:35:29.235Z,72.21
2023-05-21T06:38:14.000Z,72.00
2023-05-21T06:40:58.978Z,72.85
2023-05-21T06:43:44.088Z,72.43
2023-05-21T06:46:29.055Z,72.33
2023-05-21T06:49:14.917Z,72.48
2023-05-21T06:51:59.720Z,72.62
2023-05-21T06:54:44.941Z,72.05
2023-05-21T06:57:29.684Z,72.19
2023-05-21T07:00:14.896Z,71.95
2023-05-21T07:03:00.384Z,72.17
2023-05-21T07:05:45.184Z,72.50
2023-05-21T07:08:30.400Z,72.29
2023-05-21T07:11:15.912Z,71.32
2023-05-21T07:14:01.699Z,71.24
2023-05-21T07:16:47.421Z,70.69
2023-05-21T07:19:32.797Z,70.87
2023-05-21T07:22:18.275Z,69.99
2023-05-21T07:25:03.260Z,68.70
2023-05-21T07:27:48.495Z,68.44
2023-05-21T07:30:33.220Z,68.88
2023-05-21T07:33:20.549Z,66.56
2023-05-21T07:36:06.211Z,65.32
2023-05-21T07:38:51.580Z,64.92
2023-05-21T07:41:37.698Z,65.59
2023-05-21T07:44:22.782Z,64.99
2023-05-21T07:47:08.148Z,63.69
2023-05-21T07:49:53.077Z,63.43
2023-05-21T07:52:38.250Z,63.17
2023-05-21T07:55:23.103Z,63.77
2023-05-21T07:58:08.001Z,63.69
2023-05-21T08:00:53.163Z,64.23
2023-05-21T08:03:38.207Z,64.58
2023-05-21T08:06:24.264Z,64.79
2023-05-21T08:09:09.823Z,64.04
2023-05-21T08:11:54.713Z,64.26
2023-05-21T08:14:41.427Z,64.12
2023-05-21T08:17:28.326Z,64.12
2023-05-21T08:20:15.714Z,63.82
2023-05-21T08:23:01.127Z,63.45
2023-05-21T08:25:46.242Z,62.76
2023-05-21T08:28:32.337Z,62.40
2023-05-21T08:31:21.087Z,64.13
2023-05-21T08:34:05.863Z,63.89
2023-05-21T08:36:51.341Z,63.64
2023-05-21T08:39:36.501Z,63.80
2023-05-21T08:42:42.724Z,63.96
2023-05-21T08:45:37.543Z,63.50
2023-05-21T08:48:24.865Z,63.98
2023-05-21T08:51:09.800Z,64.91
2023-05-21T08:53:55.935Z,64.01
2023-05-21T08:56:49.185Z,63.86
2023-05-21T08:59:36.854Z,63.28
2023-05-21T09:02:21.993Z,62.72
2023-05-21T09:05:09.585Z,61.57
2023-05-21T09:08:14.223Z,61.94
2023-05-21T09:11:02.290Z,62.13
2023-05-21T09:13:48.486Z,61.67
2023-05-21T09:16:33.983Z,62.04
2023-05-21T09:19:22.353Z,60.53
2023-05-21T09:22:07.485Z,60.57
2023-05-21T09:24:52.268Z,59.83
2023-05-21T09:27:37.819Z,60.86
2023-05-21T09:30:25.477Z,59.69
2023-05-21T09:33:12.041Z,58.78
2023-05-21T09:35:57.968Z,57.69
2023-05-21T09:38:44.926Z,58.75
2023-05-21T09:41:34.895Z,57.98
2023-05-21T09:44:20.036Z,58.12
2023-05-21T09:47:05.881Z,57.07
2023-05-21T09:49:50.889Z,56.42
2023-05-21T09:52:41.994Z,56.43
2023-05-21T09:55:29.920Z,56.15
2023-05-21T09:58:15.153Z,55.34
2023-05-21T10:01:00.545Z,54.43
2023-05-21T10:03:50.761Z,54.12
2023-05-21T10:06:41.755Z,53.39
2023-05-21T10:09:28.888Z,54.06
2023-05-21T10:12:15.274Z,52.39
2023-05-21T10:15:03.392Z,52.92
2023-05-21T10:17:50.283Z,53.52
2023-05-21T10:20:36.141Z,52.24
2023-05-21T10:23:24.371Z,51.88
2023-05-21T10:26:10.646Z,51.50
2023-05-21T10:28:57.127Z,53.16
2023-05-21T10:31:46.725Z,52.21
2023-05-21T10:34:32.871Z,49.91
2023-05-21T10:37:18.238Z,50.24
2023-05-21T10:40:04.428Z,50.43
2023-05-21T10:43:11.081Z,51.46
2023-05-21T10:46:12.487Z,51.03
2023-05-21T10:49:12.336Z,50.54
2023-05-21T10:52:06.311Z,49.73
2023-05-21T10:55:20.274Z,48.95
2023-05-21T10:58:30.844Z,49.84
2023-05-21T11:01:19.148Z,50.13
2023-05-21T11:04:06.429Z,51.38
2023-05-21T11:06:52.036Z,51.29
2023-05-21T11:09:37.962Z,50.20
2023-05-21T11:12:23.551Z,49.45
2023-05-21T11:15:09.191Z,50.46
2023-05-21T11:17:56.917Z,49.99
2023-05-21T11:20:50.417Z,49.88
2023-05-21T11:23:50.486Z,49.92
2023-05-21T11:26:48.283Z,49.63
2023-05-21T11:29:40.498Z,49.68
2023-05-21T11:32:25.412Z,49.34
2023-05-21T11:35:13.971Z,48.32
2023-05-21T11:37:59.390Z,49.79
2023-05-21T11:40:55.651Z,45.76
2023-05-21T11:43:40.830Z,44.48
2023-05-21T11:46:25.893Z,43.89
2023-05-21T11:49:12.618Z,42.77
2023-05-21T11:51:59.584Z,43.40
2023-05-21T11:54:48.276Z,42.35
2023-05-21T11:57:33.538Z,41.97
2023-05-21T12:00:18.445Z,43.08
2023-05-21T12:03:06.763Z,43.88
2023-05-21T12:05:52.337Z,43.76
2023-05-21T12:08:38.261Z,45.10
2023-05-21T12:11:23.666Z,44.25
2023-05-21T12:14:11.584Z,44.33
2023-05-21T12:16:57.910Z,44.79
2023-05-21T12:19:43.530Z,44.25
2023-05-21T12:22:30.644Z,44.57
2023-05-21T12:25:19.770Z,43.54
2023-05-21T12:28:06.145Z,43.70
2023-05-21T12:30:51.402Z,43.96
2023-05-21T12:33:36.332Z,43.72
2023-05-21T12:36:34.277Z,41.20
2023-05-21T12:39:22.005Z,41.40
2023-05-21T12:42:07.294Z,42.07
2023-05-21T12:44:52.794Z,40.47
2023-05-21T12:47:41.588Z,39.30
2023-05-21T12:50:26.999Z,39.33
2023-05-21T12:53:12.174Z,40.17
2023-05-21T12:56:10.647Z,38.96
2023-05-21T12:58:56.773Z,39.10
2023-05-21T13:01:41.998Z,39.75
2023-05-21T13:04:28.280Z,39.64
2023-05-21T13:07:15.931Z,40.76
2023-05-21T13:10:02.445Z,39.33
2023-05-21T13:12:47.575Z,38.05
2023-05-21T13:15:33.945Z,36.96
2023-05-21T13:18:20.808Z,36.93
2023-05-21T13:21:06.117Z,37.49
2023-05-21T13:23:51.356Z,37.38
2023-05-21T13:26:36.635Z,37.08
2023-05-21T13:29:21.476Z,37.65
2023-05-21T13:32:07.689Z,36.04
2023-05-21T13:34:52.768Z,37.44
2023-05-21T13:37:42.134Z,37.24
2023-05-21T13:40:27.401Z,36.62
2023-05-21T13:43:12.292Z,36.18
2023-05-21T13:45:57.510Z,37.17
2023-05-21T13:48:43.276Z,37.56
2023-05-21T13:51:38.725Z,36.49
2023-05-21T13:54:24.488Z,36.78
2023-05-21T13:57:10.683Z,37.34
2023-05-21T13:59:58.835Z,37.63
2023-05-21T14:02:44.388Z,36.20
2023-05-21T14:05:29.447Z,36.87
2023-05-21T14:08:16.750Z,37.48
2023-05-21T14:11:04.089Z,37.50
2023-05-21T14:13:49.887Z,37.51
2023-05-21T14:16:35.230Z,38.90
2023-05-21T14:19:21.692Z,38.50
2023-05-21T14:22:06.991Z,38.83
2023-05-21T14:24:52.720Z,38.66
2023-05-21T14:27:38.127Z,39.29
2023-05-21T14:30:23.212Z,39.74
2023-05-21T14:33:08.325Z,39.12
2023-05-21T14:35:53.420Z,36.99
2023-05-21T14:38:38.439Z,34.98
2023-05-21T14:41:27.775Z,34.87
2023-05-21T14:44:13.002Z,36.58
2023-05-21T14:46:58.431Z,35.77
2023-05-21T14:49:43.734Z,35.06
2023-05-21T14:52:28.689Z,36.38
2023-05-21T14:55:16.386Z,35.34
2023-05-21T14:58:01.989Z,36.15
2023-05-21T15:00:46.843Z,35.36
2023-05-21T15:03:32.505Z,35.98
2023-05-21T15:06:17.819Z,35.86
2023-05-21T15:09:02.951Z,34.97
2023-05-21T15:11:52.743Z,35.63
2023-05-21T15:14:38.070Z,35.31
2023-05-21T15:17:22.946Z,34.98
2023-05-21T15:20:09.304Z,34.94
2023-05-21T15:23:05.064Z,32.54
2023-05-21T15:25:59.323Z,33.22
2023-05-21T15:28:44.762Z,33.57
2023-05-21T15:31:31.339Z,34.72
2023-05-21T15:34:18.306Z,34.60
2023-05-21T15:37:04.293Z,35.41
2023-05-21T15:39:49.637Z,35.52
2023-05-21T15:42:34.927Z,34.23
2023-05-21T15:45:21.315Z,34.46
2023-05-21T15:48:06.948Z,34.56
2023-05-21T15:50:51.890Z,34.93
2023-05-21T15:53:36.777Z,34.60
2023-05-21T15:56:22.808Z,35.35
2023-05-21T15:59:08.322Z,35.04
2023-05-21T16:01:54.630Z,35.51
2023-05-21T16:04:39.540Z,36.11
2023-05-21T16:07:24.635Z,36.22
2023-05-21T16:10:10.529Z,35.96
2023-05-21T16:12:55.410Z,36.75
2023-05-21T16:15:40.597Z,35.97
2023-05-21T16:18:25.538Z,35.92
2023-05-21T16:21:10.654Z,36.41
2023-05-21T16:23:56.696Z,36.60
2023-05-21T16:26:41.635Z,36.73
2023-05-21T16:29:26.971Z,36.77
2023-05-21T16:32:13.764Z,36.45
2023-05-21T16:34:58.988Z,36.51
2023-05-21T16:37:47.376Z,36.02
2023-05-21T16:40:32.561Z,36.54
2023-05-21T16:43:17.470Z,36.78
2023-05-21T16:46:05.261Z,36.78
2023-05-21T16:48:50.136Z,36.34
2023-05-21T16:51:34.998Z,35.97
2023-05-21T16:54:20.108Z,36.38
2023-05-21T16:57:05.409Z,36.54
2023-05-21T16:59:52.879Z,36.96
2023-05-21T17:02:38.272Z,36.08
2023-05-21T17:05:24.061Z,36.55
2023-05-21T17:08:09.348Z,36.90
2023-05-21T17:10:55.362Z,36.43
2023-05-21T17:13:40.441Z,36.63
2023-05-21T17:16:25.495Z,36.61
2023-05-21T17:19:10.767Z,36.46
2023-05-21T17:21:56.234Z,37.53
2023-05-21T17:24:41.241Z,37.21
2023-05-21T17:27:27.051Z,38.39
2023-05-21T17:30:12.393Z,37.59
2023-05-21T17:32:59.188Z,38.01
2023-05-21T17:35:47.298Z,38.61
2023-05-21T17:38:34.582Z,38.58
2023-05-21T17:41:20.106Z,39.15
2023-05-21T17:44:05.382Z,38.37
2023-05-21T17:46:51.749Z,38.94
2023-05-21T17:49:36.738Z,39.44
2023-05-21T17:52:21.596Z,38.53
2023-05-21T17:55:08.621Z,38.86
2023-05-21T17:57:53.357Z,39.38
2023-05-21T18:00:38.646Z,39.80
2023-05-21T18:03:23.925Z,39.61
2023-05-21T18:06:10.799Z,39.97
2023-05-21T18:08:56.007Z,40.57
2023-05-21T18:11:42.782Z,40.94
2023-05-21T18:14:28.008Z,41.70
2023-05-21T18:17:13.512Z,42.57
2023-05-21T18:19:58.772Z,43.26
2023-05-21T18:22:44.878Z,43.15
2023-05-21T18:25:30.608Z,43.80
2023-05-21T18:28:16.284Z,43.81
2023-05-21T18:31:03.769Z,44.01
2023-05-21T18:33:49.097Z,44.55
2023-05-21T18:36:39.828Z,45.34
2023-05-21T18:39:24.949Z,46.70
2023-05-21T18:42:13.562Z,47.46
2023-05-21T18:45:07.428Z,46.45
2023-05-21T18:47:52.381Z,46.90
2023-05-21T18:50:38.232Z,46.22
2023-05-21T18:53:23.239Z,46.77
2023-05-21T18:56:10.494Z,47.08
2023-05-21T18:58:55.785Z,47.43
2023-05-21T19:01:40.709Z,48.68
2023-05-21T19:04:28.720Z,48.03
2023-05-21T19:07:16.728Z,46.91
2023-05-21T19:10:04.475Z,47.10
2023-05-21T19:12:49.800Z,45.95
2023-05-21T19:15:35.360Z,46.54
2023-05-21T19:18:22.249Z,46.56
2023-05-21T19:21:11.054Z,47.96
2023-05-21T19:23:56.375Z,47.55
2023-05-21T19:26:41.474Z,48.25
2023-05-21T19:29:28.798Z,48.35
2023-05-21T19:32:19.034Z,48.60
2023-05-21T19:35:06.372Z,49.61
2023-05-21T19:37:52.068Z,49.92
2023-05-21T19:40:38.139Z,49.94
2023-05-21T19:43:24.499Z,50.37
2023-05-21T19:46:10.776Z,51.38
2023-05-21T19:48:57.554Z,51.59
2023-05-21T19:51:42.607Z,51.71
2023-05-21T19:54:28.532Z,51.93
2023-05-21T19:57:13.855Z,51.36
2023-05-21T20:00:02.402Z,51.54
2023-05-21T20:02:47.554Z,50.94
2023-05-21T20:05:32.725Z,50.74
2023-05-21T20:08:24.955Z,50.57
2023-05-21T20:11:10.827Z,50.93
2023-05-21T20:13:58.309Z,50.51
2023-05-21T20:16:46.902Z,50.65
2023-05-21T20:19:32.735Z,50.94
2023-05-21T20:22:20.802Z,50.34
2023-05-21T20:25:09.965Z,49.92
2023-05-21T20:27:56.877Z,50.27
2023-05-21T20:30:59.035Z,50.58
2023-05-21T20:33:44.120Z,49.79
2023-05-21T20:36:30.390Z,49.64
2023-05-21T20:39:16.061Z,50.03
2023-05-21T20:42:02.673Z,50.10
2023-05-21T20:44:51.788Z,50.06
2023-05-21T20:47:38.351Z,50.35
2023-05-21T20:50:25.953Z,50.11
2023-05-21T20:53:15.604Z,50.01
2023-05-21T20:56:01.383Z,50.09
2023-05-21T20:58:48.603Z,50.09
2023-05-21T21:01:33.925Z,49.90
2023-05-21T21:04:18.892Z,49.78
2023-05-21T21:07:07.767Z,50.09
2023-05-21T21:09:53.636Z,49.96
2023-05-21T21:12:38.356Z,49.75
2023-05-21T21:15:25.414Z,49.90
2023-05-21T21:18:12.485Z,49.92
2023-05-21T21:20:57.652Z,50.26
2023-05-21T21:23:42.602Z,50.20
2023-05-21T21:26:28.839Z,50.07
2023-05-21T21:29:13.930Z,50.04
2023-05-21T21:31:59.058Z,50.01
2023-05-21T21:34:44.179Z,49.97
2023-05-21T21:37:29.417Z,50.41
2023-05-21T21:40:14.691Z,50.11
2023-05-21T21:42:59.665Z,50.28
2023-05-21T21:45:44.721Z,50.52
2023-05-21T21:48:29.883Z,50.47
2023-05-21T21:51:15.492Z,50.74
2023-05-21T21:54:00.680Z,51.19
2023-05-21T21:56:45.662Z,50.77
2023-05-21T21:59:30.589Z,50.87
2023-05-21T22:02:18.301Z,50.96
2023-05-21T22:05:03.529Z,51.23
2023-05-21T22:07:49.250Z,50.80
2023-05-21T22:10:37.852Z,51.41
2023-05-21T22:13:24.466Z,51.88
2023-05-21T22:16:11.592Z,51.73
2023-05-21T22:18:57.886Z,51.86
2023-05-21T22:21:43.163Z,52.11
2023-05-21T22:24:32.808Z,52.09
2023-05-21T22:27:18.491Z,52.08
2023-05-21T22:30:04.582Z,51.76
2023-05-21T22:32:49.714Z,51.93
2023-05-21T22:35:35.140Z,51.82
2023-05-21T22:38:20.721Z,51.52
2023-05-21T22:41:05.804Z,51.39
2023-05-21T22:43:52.113Z,51.53
2023-05-21T22:46:38.492Z,51.67
2023-05-21T22:49:23.416Z,51.84
2023-05-21T22:52:09.198Z,51.56
2023-05-21T22:54:54.140Z,51.68
2023-05-21T22:57:40.763Z,51.66
2023-05-21T23:00:26.033Z,52.04
2023-05-21T23:03:11.432Z,52.33
2023-05-21T23:05:56.401Z,52.52
2023-05-21T23:08:41.773Z,52.69
2023-05-21T23:11:26.569Z,52.56
2023-05-21T23:14:11.519Z,52.86
2023-05-21T23:17:01.614Z,53.15
2023-05-21T23:19:50.174Z,53.00
2023-05-21T23:22:35.810Z,53.28
2023-05-21T23:25:20.796Z,53.14
2023-05-21T23:28:06.060Z,53.26
2023-05-21T23:30:51.513Z,53.40
2023-05-21T23:33:36.859Z,53.08
2023-05-21T23:36:21.555Z,53.17
2023-05-21T23:39:06.494Z,53.02
2023-05-21T23:41:52.269Z,52.96
2023-05-21T23:44:37.864Z,52.64
2023-05-21T23:47:23.211Z,53.28
2023-05-21T23:50:08.648Z,53.33
2023-05-21T23:52:53.740Z,53.32
2023-05-21T23:55:39.178Z,53.29
2023-05-21T23:58:24.424Z,53.73
